Time;durP1;ratioP1;P1;durP2;ratioP2;P2;SDS_P1;SDS_P2;PMS_P1;PMS_P2;Temp;Humidity;BMP_temperature;BMP_pressure;BME280_temperature;BME280_humidity;BME280_pressure;Samples;Min_cycle;Max_cycle;Signal;HPM_P1;HPM_P2
2022/03/06 00:00:58;;;;;;;58.78;31.63;;;4.60;59.40;;;;;;4986272;28;20227;-81
2022/03/06 00:03:26;;;;;;;46.47;26.27;;;4.50;59.50;;;;;;4999548;28;20581;-81
2022/03/06 00:05:54;;;;;;;47.47;26.13;;;4.50;59.60;;;;;;4987353;28;20233;-81
2022/03/06 00:08:23;;;;;;;39.20;21.98;;;4.50;59.60;;;;;;4993421;28;20229;-82
2022/03/06 00:10:51;;;;;;;40.97;23.23;;;4.50;59.70;;;;;;4986702;28;21210;-81
2022/03/06 00:13:19;;;;;;;29.95;17.42;;;4.50;59.80;;;;;;5001027;28;20559;-81
2022/03/06 00:15:47;;;;;;;17.40;11.18;;;4.50;59.80;;;;;;4987588;28;20233;-81
2022/03/06 00:18:15;;;;;;;20.75;13.30;;;4.40;59.80;;;;;;4986544;28;20570;-81
2022/03/06 00:20:43;;;;;;;21.70;15.70;;;4.30;59.80;;;;;;5002047;28;20199;-82
2022/03/06 00:23:11;;;;;;;24.83;15.95;;;4.30;59.70;;;;;;4986329;28;20195;-81
2022/03/06 00:25:40;;;;;;;20.25;14.25;;;4.20;60.00;;;;;;4984698;28;20215;-82
2022/03/06 00:28:08;;;;;;;19.20;12.00;;;4.20;60.20;;;;;;4986749;28;20250;-82
2022/03/06 00:30:36;;;;;;;20.17;11.50;;;4.20;60.20;;;;;;4984350;28;20254;-81
2022/03/06 00:33:05;;;;;;;16.63;10.45;;;4.20;60.20;;;;;;4999165;28;20289;-81
2022/03/06 00:35:34;;;;;;;17.67;11.77;;;4.20;60.30;;;;;;4988344;28;20207;-82
2022/03/06 00:38:03;;;;;;;17.80;10.52;;;4.30;60.40;;;;;;5001126;28;20688;-81
2022/03/06 00:40:31;;;;;;;21.58;12.10;;;4.30;60.60;;;;;;4987152;28;20203;-81
2022/03/06 00:43:00;;;;;;;18.95;12.48;;;4.30;60.50;;;;;;4985068;28;20211;-81
2022/03/06 00:45:28;;;;;;;23.30;15.05;;;4.30;60.50;;;;;;5002028;28;20741;-81
2022/03/06 00:47:57;;;;;;;25.50;15.52;;;4.20;60.60;;;;;;4993004;28;20241;-81
2022/03/06 00:50:25;;;;;;;30.35;18.60;;;4.20;60.60;;;;;;4988578;28;20210;-81
2022/03/06 00:52:53;;;;;;;26.98;15.05;;;4.20;60.70;;;;;;4986968;28;20264;-81
2022/03/06 00:55:21;;;;;;;22.52;14.02;;;4.20;60.70;;;;;;4989648;28;20199;-81
2022/03/06 00:57:50;;;;;;;25.95;16.02;;;4.20;60.90;;;;;;4989996;28;20305;-83
2022/03/06 01:00:20;;;;;;;34.80;20.15;;;4.10;61.00;;;;;;4992302;28;20860;-82
2022/03/06 01:02:48;;;;;;;27.88;16.63;;;4.10;61.00;;;;;;5005503;28;20215;-82
2022/03/06 01:05:16;;;;;;;21.23;14.27;;;4.00;61.10;;;;;;4992439;28;20294;-81
2022/03/06 01:07:44;;;;;;;33.10;18.50;;;4.00;61.20;;;;;;5006635;28;20462;-83
2022/03/06 01:10:12;;;;;;;50.20;21.25;;;4.00;61.40;;;;;;5006289;28;20199;-82
2022/03/06 01:12:40;;;;;;;59.47;24.17;;;4.10;61.40;;;;;;5002773;28;20273;-81
2022/03/06 01:15:09;;;;;;;33.63;17.70;;;4.10;61.40;;;;;;4984522;28;20195;-82
2022/03/06 01:17:39;;;;;;;28.35;16.58;;;4.10;61.50;;;;;;4998874;28;20232;-81
2022/03/06 01:20:08;;;;;;;22.27;12.60;;;4.10;61.50;;;;;;4999393;28;20599;-82
2022/03/06 01:22:36;;;;;;;52.78;21.58;;;4.10;61.60;;;;;;4983676;28;20214;-82
2022/03/06 01:25:06;;;;;;;50.03;18.02;;;4.10;61.60;;;;;;5000520;28;20224;-81
2022/03/06 01:27:34;;;;;;;137.43;43.05;;;4.10;61.60;;;;;;4986062;28;20210;-82
2022/03/06 01:30:02;;;;;;;125.22;39.33;;;4.20;61.70;;;;;;5000393;28;20208;-81
2022/03/06 01:32:30;;;;;;;100.05;33.60;;;4.20;61.70;;;;;;4981931;28;20280;-82
2022/03/06 01:34:59;;;;;;;96.93;32.60;;;4.30;61.70;;;;;;4982953;28;20206;-83
2022/03/06 01:37:27;;;;;;;200.35;54.40;;;4.40;61.80;;;;;;4984883;28;20198;-82
2022/03/06 01:39:55;;;;;;;335.20;85.90;;;4.40;61.60;;;;;;4983857;28;20222;-82
2022/03/06 01:42:24;;;;;;;126.55;38.22;;;4.40;61.60;;;;;;4983581;28;20210;-81
2022/03/06 01:44:52;;;;;;;112.25;33.25;;;4.40;61.50;;;;;;4999346;28;20202;-82
2022/03/06 01:47:34;;;;;;;31.08;15.60;;;4.40;61.40;;;;;;4984753;28;20230;-82
2022/03/06 01:50:05;;;;;;;185.02;47.47;;;4.40;61.50;;;;;;4991323;28;20206;-83
2022/03/06 01:52:33;;;;;;;50.25;20.10;;;4.30;61.50;;;;;;4999705;28;20205;-83
2022/03/06 01:55:01;;;;;;;35.05;16.60;;;4.20;61.50;;;;;;4981826;28;20253;-81
2022/03/06 01:57:30;;;;;;;31.63;15.20;;;4.20;61.60;;;;;;5000115;28;20242;-82
2022/03/06 01:59:58;;;;;;;47.25;19.60;;;4.20;61.60;;;;;;4985783;28;20857;-82
2022/03/06 02:02:26;;;;;;;37.63;17.88;;;4.20;61.70;;;;;;4998509;28;20229;-80
2022/03/06 02:04:55;;;;;;;33.45;16.08;;;4.20;61.80;;;;;;4976232;28;20206;-82
2022/03/06 02:07:24;;;;;;;37.92;17.10;;;4.20;61.80;;;;;;4981330;28;20716;-82
2022/03/06 02:09:52;;;;;;;76.07;28.23;;;4.20;61.80;;;;;;4983408;28;20215;-82
2022/03/06 02:12:23;;;;;;;36.13;17.48;;;4.20;61.80;;;;;;4995819;28;20594;-82
2022/03/06 02:14:52;;;;;;;29.67;16.92;;;4.20;61.80;;;;;;4982296;28;20194;-81
2022/03/06 02:17:21;;;;;;;23.88;14.40;;;4.20;61.80;;;;;;4998316;28;20631;-82
2022/03/06 02:19:53;;;;;;;19.98;11.57;;;4.20;61.90;;;;;;4982904;28;20948;-82
2022/03/06 02:22:24;;;;;;;19.50;11.23;;;4.20;62.00;;;;;;4981650;28;20345;-82
2022/03/06 02:24:52;;;;;;;61.55;24.17;;;4.20;62.00;;;;;;4980780;28;20203;-83
2022/03/06 02:27:20;;;;;;;42.95;20.85;;;4.20;62.00;;;;;;4998561;28;20574;-81
2022/03/06 02:29:49;;;;;;;24.52;12.45;;;4.20;62.00;;;;;;4984027;28;20218;-82
2022/03/06 02:32:19;;;;;;;21.73;12.60;;;4.20;61.90;;;;;;4982946;28;20281;-81
2022/03/06 02:34:48;;;;;;;22.88;12.75;;;4.10;61.90;;;;;;4983315;28;20205;-81
2022/03/06 02:37:18;;;;;;;20.13;12.02;;;4.10;62.00;;;;;;4982673;28;20687;-83
2022/03/06 02:39:48;;;;;;;19.75;11.68;;;4.10;62.10;;;;;;4998066;28;20236;-83
2022/03/06 02:42:28;;;;;;;34.83;17.63;;;4.10;62.10;;;;;;4982406;28;20213;-83
2022/03/06 02:44:56;;;;;;;38.90;17.52;;;4.10;62.10;;;;;;4982347;28;20211;-83
2022/03/06 02:47:25;;;;;;;24.92;13.90;;;4.10;62.10;;;;;;4980566;28;20233;-82
2022/03/06 02:49:54;;;;;;;20.33;12.02;;;4.10;62.00;;;;;;4983763;28;20222;-82
2022/03/06 02:52:22;;;;;;;17.80;11.13;;;4.10;61.90;;;;;;4997982;28;20211;-82
2022/03/06 02:54:51;;;;;;;17.63;10.60;;;4.10;61.80;;;;;;4981470;28;20203;-83
2022/03/06 02:57:19;;;;;;;25.20;13.13;;;4.00;61.90;;;;;;4984045;28;20919;-84
2022/03/06 02:59:47;;;;;;;73.65;27.17;;;4.00;61.90;;;;;;4982763;28;20223;-83
2022/03/06 03:02:15;;;;;;;28.25;14.60;;;3.90;61.90;;;;;;4999039;28;20241;-82
2022/03/06 03:04:43;;;;;;;16.23;10.27;;;3.90;61.90;;;;;;4997475;28;20210;-80
2022/03/06 03:07:11;;;;;;;18.30;10.98;;;3.80;61.90;;;;;;4980477;28;20277;-81
2022/03/06 03:09:39;;;;;;;18.90;10.90;;;3.80;61.90;;;;;;4982492;28;20234;-81
2022/03/06 03:12:09;;;;;;;20.52;12.45;;;3.70;62.00;;;;;;4983476;28;20199;-81
2022/03/06 03:14:37;;;;;;;27.33;14.15;;;3.70;62.10;;;;;;4997435;28;20731;-82
2022/03/06 03:17:06;;;;;;;22.50;12.00;;;3.70;62.20;;;;;;4986472;28;20226;-82
2022/03/06 03:19:34;;;;;;;23.25;12.32;;;3.70;62.10;;;;;;4986997;28;20219;-81
2022/03/06 03:22:02;;;;;;;18.33;10.60;;;3.70;62.20;;;;;;5002192;28;20231;-80
2022/03/06 03:24:31;;;;;;;20.75;12.30;;;3.70;62.10;;;;;;4985667;28;20224;-82
2022/03/06 03:26:59;;;;;;;27.05;13.77;;;3.70;62.20;;;;;;5001784;28;20198;-82
2022/03/06 03:29:28;;;;;;;21.42;12.10;;;3.70;62.30;;;;;;5002509;28;20231;-82
2022/03/06 03:31:56;;;;;;;21.35;12.18;;;3.70;62.30;;;;;;4986032;28;20238;-82
2022/03/06 03:34:25;;;;;;;20.60;12.00;;;3.70;62.40;;;;;;4987488;28;20716;-83
2022/03/06 03:36:53;;;;;;;17.55;11.75;;;3.80;62.30;;;;;;5001188;28;20207;-82
2022/03/06 03:39:20;;;;;;;17.73;10.75;;;3.80;62.30;;;;;;5002111;28;20719;-81
2022/03/06 03:41:48;;;;;;;62.85;28.13;;;3.80;62.40;;;;;;4995761;28;20684;-82
2022/03/06 03:44:16;;;;;;;39.45;18.58;;;3.80;62.40;;;;;;4983189;28;20210;-82
2022/03/06 03:46:46;;;;;;;32.10;16.95;;;3.80;62.40;;;;;;4992614;28;20325;-82
2022/03/06 03:49:14;;;;;;;28.08;15.65;;;3.80;62.40;;;;;;5002158;28;20231;-82
2022/03/06 03:51:42;;;;;;;24.67;13.40;;;3.80;62.40;;;;;;4985270;28;20197;-80
2022/03/06 03:54:11;;;;;;;23.23;14.13;;;3.80;62.60;;;;;;4988134;28;20914;-83
2022/03/06 03:56:39;;;;;;;35.88;18.38;;;3.90;62.60;;;;;;4987199;28;20202;-82
2022/03/06 03:59:07;;;;;;;31.33;16.30;;;3.80;62.40;;;;;;4991079;28;20227;-80
2022/03/06 04:01:35;;;;;;;30.45;15.90;;;3.80;62.40;;;;;;4985224;28;20237;-79
2022/03/06 04:04:05;;;;;;;28.20;15.35;;;3.80;62.60;;;;;;5000722;28;20202;-80
2022/03/06 04:06:33;;;;;;;28.08;13.85;;;3.80;62.60;;;;;;5001727;28;20209;-80
2022/03/06 04:09:01;;;;;;;40.20;18.45;;;3.80;62.70;;;;;;4986841;28;20257;-82
2022/03/06 04:11:29;;;;;;;22.55;12.25;;;3.80;62.70;;;;;;4988431;28;20261;-80
2022/03/06 04:13:57;;;;;;;16.45;10.73;;;3.80;62.70;;;;;;4994461;28;20222;-81
2022/03/06 04:16:25;;;;;;;18.27;10.40;;;3.80;62.80;;;;;;4985228;28;20235;-81
2022/03/06 04:18:53;;;;;;;19.83;11.43;;;3.80;62.70;;;;;;4985267;28;20222;-80
2022/03/06 04:21:22;;;;;;;18.42;9.60;;;3.80;62.80;;;;;;4994981;28;20231;-80
2022/03/06 04:23:50;;;;;;;25.33;13.25;;;3.80;62.80;;;;;;5001564;28;20599;-81
2022/03/06 04:26:18;;;;;;;44.78;20.30;;;3.80;62.80;;;;;;4985134;28;20217;-81
2022/03/06 04:28:46;;;;;;;38.40;19.42;;;3.80;62.80;;;;;;4987920;28;20416;-81
2022/03/06 04:31:14;;;;;;;28.65;13.77;;;3.80;62.90;;;;;;4989801;28;20629;-81
2022/03/06 04:33:42;;;;;;;21.85;11.50;;;3.90;62.90;;;;;;5001257;28;20755;-81
2022/03/06 04:36:11;;;;;;;20.52;11.25;;;3.90;62.90;;;;;;5005654;28;20206;-81
2022/03/06 04:38:41;;;;;;;16.45;9.80;;;3.90;62.90;;;;;;5003868;28;20223;-82
2022/03/06 04:41:09;;;;;;;12.73;8.70;;;3.90;62.80;;;;;;4990901;28;20214;-81
2022/03/06 04:43:37;;;;;;;14.13;8.98;;;4.00;62.70;;;;;;4986425;28;20595;-80
2022/03/06 04:46:06;;;;;;;21.63;10.70;;;4.00;62.60;;;;;;4986443;28;20234;-80
2022/03/06 04:48:34;;;;;;;15.57;9.57;;;4.00;62.60;;;;;;4986594;28;20261;-80
2022/03/06 04:51:02;;;;;;;17.00;10.27;;;4.00;62.60;;;;;;5001968;28;20724;-80
2022/03/06 04:53:30;;;;;;;13.85;8.65;;;4.00;62.50;;;;;;4989529;28;20206;-83
2022/03/06 04:55:59;;;;;;;15.23;9.30;;;4.00;62.50;;;;;;4984729;28;20309;-82
2022/03/06 04:58:31;;;;;;;16.35;9.52;;;4.00;62.50;;;;;;4985751;28;20276;-83
2022/03/06 05:00:59;;;;;;;13.45;9.50;;;4.00;62.50;;;;;;4984545;28;20226;-80
2022/03/06 05:03:27;;;;;;;15.77;10.43;;;4.00;62.50;;;;;;5000538;28;20211;-82
2022/03/06 05:05:55;;;;;;;15.95;10.85;;;4.00;62.50;;;;;;5001325;28;20210;-80
2022/03/06 05:08:26;;;;;;;17.50;9.93;;;4.00;62.50;;;;;;4994896;28;20210;-80
2022/03/06 05:10:54;;;;;;;16.80;10.60;;;3.90;62.60;;;;;;4986622;28;20680;-82
2022/03/06 05:13:24;;;;;;;13.93;8.85;;;3.90;62.60;;;;;;4984267;28;20221;-82
2022/03/06 05:15:52;;;;;;;14.95;9.13;;;3.90;62.40;;;;;;4984671;28;20230;-82
2022/03/06 05:18:20;;;;;;;14.65;9.40;;;3.90;62.40;;;;;;5000069;28;20241;-82
2022/03/06 05:20:49;;;;;;;15.85;9.02;;;3.90;62.40;;;;;;5001413;28;21092;-81
2022/03/06 05:23:17;;;;;;;14.07;9.63;;;3.80;62.40;;;;;;4979342;28;20242;-81
2022/03/06 05:25:45;;;;;;;17.48;10.35;;;3.80;62.40;;;;;;5000809;28;20210;-81
2022/03/06 05:28:14;;;;;;;16.30;9.82;;;3.80;62.40;;;;;;4986135;28;20951;-82
2022/03/06 05:30:43;;;;;;;13.65;8.55;;;3.80;62.40;;;;;;5000037;28;20925;-82
2022/03/06 05:33:11;;;;;;;14.13;9.20;;;3.70;62.40;;;;;;4999960;28;20285;-82
2022/03/06 05:35:39;;;;;;;15.82;10.55;;;3.70;62.60;;;;;;4985843;28;20940;-82
2022/03/06 05:38:07;;;;;;;15.57;9.95;;;3.70;62.60;;;;;;4982595;28;20234;-81
2022/03/06 05:40:35;;;;;;;15.45;9.40;;;3.70;62.60;;;;;;4985782;28;20203;-81
2022/03/06 05:43:04;;;;;;;15.55;9.60;;;3.70;62.60;;;;;;4994880;28;20211;-81
2022/03/06 05:45:32;;;;;;;16.13;9.13;;;3.70;62.60;;;;;;4985153;28;20241;-82
2022/03/06 05:48:02;;;;;;;15.30;9.80;;;3.70;62.60;;;;;;4999814;28;20700;-81
2022/03/06 05:50:30;;;;;;;16.70;9.73;;;3.70;62.60;;;;;;4999368;28;20281;-81
2022/03/06 05:52:58;;;;;;;13.63;8.65;;;3.70;62.50;;;;;;4999140;28;20210;-81
2022/03/06 05:55:25;;;;;;;14.15;8.48;;;3.60;62.50;;;;;;5000353;28;20215;-81
2022/03/06 05:57:53;;;;;;;16.73;9.93;;;3.60;62.50;;;;;;4984601;28;20237;-82
2022/03/06 06:00:22;;;;;;;26.77;12.23;;;3.60;62.50;;;;;;4990203;28;20199;-82
2022/03/06 06:02:50;;;;;;;44.25;18.42;;;3.50;62.60;;;;;;4999199;28;20234;-81
2022/03/06 06:05:19;;;;;;;42.40;18.13;;;3.60;62.60;;;;;;4985280;28;20286;-82
2022/03/06 06:07:48;;;;;;;33.80;16.33;;;3.60;62.60;;;;;;4999692;28;20238;-81
2022/03/06 06:10:16;;;;;;;37.33;17.50;;;3.60;62.60;;;;;;5000303;28;20207;-81
2022/03/06 06:12:45;;;;;;;90.60;35.70;;;3.50;62.60;;;;;;4984150;28;20205;-81
2022/03/06 06:15:12;;;;;;;67.97;27.20;;;3.50;62.60;;;;;;4983411;28;20211;-81
2022/03/06 06:17:40;;;;;;;27.42;14.20;;;3.50;62.60;;;;;;4984537;28;20225;-81
2022/03/06 06:20:10;;;;;;;23.33;11.35;;;3.50;62.50;;;;;;5000276;28;20261;-82
2022/03/06 06:22:39;;;;;;;19.38;11.90;;;3.40;62.50;;;;;;4998543;28;20310;-81
2022/03/06 06:25:08;;;;;;;17.70;12.43;;;3.40;62.60;;;;;;4986644;28;20230;-82
2022/03/06 06:27:36;;;;;;;25.92;13.27;;;3.40;62.60;;;;;;4983577;28;20240;-82
2022/03/06 06:30:05;;;;;;;49.25;18.75;;;3.40;62.70;;;;;;4981308;28;20203;-81
2022/03/06 06:32:33;;;;;;;36.22;15.75;;;3.40;62.70;;;;;;4982557;28;20218;-82
2022/03/06 06:35:01;;;;;;;24.38;13.20;;;3.40;62.80;;;;;;4991975;28;20249;-83
2022/03/06 06:37:29;;;;;;;26.75;13.50;;;3.40;62.80;;;;;;4982950;28;20207;-82
2022/03/06 06:39:59;;;;;;;22.95;13.57;;;3.40;62.80;;;;;;4983497;28;20891;-81
2022/03/06 06:42:27;;;;;;;22.35;13.80;;;3.40;62.90;;;;;;4984552;28;20229;-82
2022/03/06 06:44:55;;;;;;;20.75;11.07;;;3.50;62.90;;;;;;4982976;28;20217;-81
2022/03/06 06:47:24;;;;;;;23.40;11.77;;;3.50;62.90;;;;;;4999034;28;20316;-81
2022/03/06 06:49:52;;;;;;;22.02;12.30;;;3.50;62.90;;;;;;4986743;28;20805;-82
2022/03/06 06:52:20;;;;;;;19.40;11.68;;;3.50;62.90;;;;;;4993477;28;20191;-81
2022/03/06 06:54:48;;;;;;;20.13;12.02;;;3.50;62.90;;;;;;5003650;28;20209;-81
2022/03/06 06:57:17;;;;;;;21.98;11.65;;;3.50;62.90;;;;;;4993056;28;20748;-81
2022/03/06 06:59:45;;;;;;;13.90;9.02;;;3.50;62.90;;;;;;5001981;28;20223;-81
2022/03/06 07:02:13;;;;;;;15.63;10.40;;;3.50;62.90;;;;;;4988497;28;20233;-81
2022/03/06 07:04:42;;;;;;;13.90;9.48;;;3.50;62.90;;;;;;5002198;28;20209;-82
2022/03/06 07:07:10;;;;;;;17.92;9.75;;;3.50;62.90;;;;;;4989775;28;20206;-81
2022/03/06 07:09:38;;;;;;;18.73;9.63;;;3.50;63.00;;;;;;4992122;28;20226;-81
2022/03/06 07:12:07;;;;;;;18.48;9.90;;;3.60;63.00;;;;;;4989037;28;20213;-82
2022/03/06 07:14:36;;;;;;;13.15;9.10;;;3.60;63.00;;;;;;4988025;28;20205;-81
2022/03/06 07:17:05;;;;;;;14.35;8.98;;;3.60;63.10;;;;;;4985537;28;20643;-81
2022/03/06 07:19:33;;;;;;;17.50;11.93;;;3.60;63.00;;;;;;4988035;28;20225;-82
2022/03/06 07:22:01;;;;;;;19.65;11.75;;;3.60;63.10;;;;;;5003020;28;20207;-82
2022/03/06 07:24:29;;;;;;;17.45;10.38;;;3.60;63.10;;;;;;4991202;28;20226;-81
2022/03/06 07:26:57;;;;;;;14.07;9.82;;;3.70;63.20;;;;;;4988307;28;20199;-82
2022/03/06 07:29:25;;;;;;;15.18;10.13;;;3.70;63.20;;;;;;4988903;28;20239;-82
2022/03/06 07:31:54;;;;;;;14.43;8.65;;;3.70;63.20;;;;;;4986807;28;20234;-82
2022/03/06 07:34:22;;;;;;;15.48;10.07;;;3.80;63.20;;;;;;4987671;28;20203;-82
2022/03/06 07:36:50;;;;;;;15.93;9.95;;;3.80;63.20;;;;;;4988536;28;20206;-82
2022/03/06 07:39:18;;;;;;;18.85;9.25;;;3.80;63.20;;;;;;5000057;28;20257;-84
2022/03/06 07:41:46;;;;;;;15.70;9.43;;;3.90;63.20;;;;;;4987459;28;20187;-83
2022/03/06 07:44:13;;;;;;;16.85;9.70;;;4.00;63.00;;;;;;5002206;28;20226;-82
2022/03/06 07:46:41;;;;;;;13.00;8.57;;;4.00;63.00;;;;;;4993405;28;20234;-81
2022/03/06 07:49:11;;;;;;;16.55;9.43;;;4.00;62.90;;;;;;4991020;28;20337;-81
2022/03/06 07:51:39;;;;;;;14.02;9.20;;;4.00;62.70;;;;;;4984893;28;20195;-81
2022/03/06 07:54:08;;;;;;;13.95;9.20;;;4.00;62.70;;;;;;4988575;28;20208;-81
2022/03/06 07:56:35;;;;;;;14.93;9.13;;;4.00;62.60;;;;;;5006012;28;20199;-80
2022/03/06 07:59:09;;;;;;;20.73;11.48;;;4.00;62.60;;;;;;4991171;28;20218;-81
2022/03/06 08:01:37;;;;;;;19.77;12.50;;;4.00;62.60;;;;;;4989765;28;20899;-81
2022/03/06 08:04:05;;;;;;;17.63;10.15;;;4.00;62.50;;;;;;4990681;28;20214;-81
2022/03/06 08:06:34;;;;;;;26.40;14.40;;;4.00;62.30;;;;;;4991769;28;20213;-81
2022/03/06 08:09:04;;;;;;;17.15;10.70;;;4.00;61.70;;;;;;4991082;28;20227;-81
2022/03/06 08:11:32;;;;;;;17.25;11.10;;;4.00;62.00;;;;;;5006902;28;20191;-81
2022/03/06 08:14:00;;;;;;;171.63;75.10;;;4.00;62.10;;;;;;5004495;28;20203;-81
2022/03/06 08:16:28;;;;;;;23.08;15.55;;;4.00;61.80;;;;;;4989688;28;20237;-81
2022/03/06 08:18:56;;;;;;;21.27;15.75;;;4.00;61.80;;;;;;4988250;28;20792;-81
2022/03/06 08:21:24;;;;;;;21.05;12.70;;;4.00;61.90;;;;;;4989099;28;20198;-81
2022/03/06 08:23:53;;;;;;;15.25;10.43;;;4.00;61.80;;;;;;4999243;28;20211;-80
2022/03/06 08:26:23;;;;;;;14.38;9.50;;;4.00;61.60;;;;;;4986421;28;20228;-81
2022/03/06 08:28:51;;;;;;;17.88;12.40;;;4.00;61.50;;;;;;5002309;28;20253;-81
2022/03/06 08:31:19;;;;;;;16.90;10.75;;;3.90;61.50;;;;;;4986393;28;20231;-81
2022/03/06 08:33:47;;;;;;;15.35;9.60;;;3.90;61.40;;;;;;5000776;28;20195;-82
2022/03/06 08:36:16;;;;;;;17.00;10.75;;;3.90;61.30;;;;;;5002326;28;20261;-81
2022/03/06 08:38:44;;;;;;;14.95;10.05;;;4.00;61.50;;;;;;4985372;28;20226;-81
2022/03/06 08:41:13;;;;;;;16.83;10.88;;;4.00;61.30;;;;;;4987238;28;20272;-82
2022/03/06 08:43:41;;;;;;;13.10;10.32;;;4.00;61.40;;;;;;4983396;28;20237;-80
2022/03/06 08:46:09;;;;;;;19.75;12.82;;;4.00;61.40;;;;;;4994753;28;20640;-81
2022/03/06 08:48:37;;;;;;;21.23;12.18;;;4.00;61.40;;;;;;4985035;28;20241;-81
2022/03/06 08:51:05;;;;;;;20.88;11.45;;;4.10;61.30;;;;;;4987038;28;20210;-80
2022/03/06 08:53:34;;;;;;;21.60;12.75;;;4.10;61.40;;;;;;4985093;28;20202;-81
2022/03/06 08:56:02;;;;;;;18.52;11.45;;;4.10;61.10;;;;;;5001561;28;20768;-81
2022/03/06 08:58:31;;;;;;;29.95;16.35;;;4.10;61.10;;;;;;4997527;28;20238;-80
2022/03/06 09:01:00;;;;;;;26.65;15.98;;;4.10;61.10;;;;;;5000951;28;20233;-80
2022/03/06 09:03:29;;;;;;;20.38;11.90;;;4.10;61.30;;;;;;4983947;28;20244;-80
2022/03/06 09:05:57;;;;;;;21.10;12.63;;;4.10;61.30;;;;;;4984796;28;20289;-81
2022/03/06 09:08:33;;;;;;;20.77;12.27;;;4.20;61.20;;;;;;4998179;28;20350;-81
2022/03/06 09:11:01;;;;;;;15.07;10.90;;;4.20;61.30;;;;;;4985108;28;20225;-81
2022/03/06 09:13:30;;;;;;;17.55;11.05;;;4.30;61.00;;;;;;4985731;28;20202;-81
2022/03/06 09:15:58;;;;;;;16.70;12.15;;;4.30;61.10;;;;;;4984436;28;20676;-82
2022/03/06 09:18:26;;;;;;;15.30;11.10;;;4.30;61.00;;;;;;5001424;28;20222;-82
2022/03/06 09:20:54;;;;;;;19.88;11.18;;;4.40;61.00;;;;;;4986464;28;20613;-81
2022/03/06 09:23:22;;;;;;;14.15;9.70;;;4.40;60.70;;;;;;4985162;28;20198;-81
2022/03/06 09:25:50;;;;;;;15.20;10.07;;;4.40;60.60;;;;;;4985724;28;20202;-80
2022/03/06 09:28:18;;;;;;;18.10;12.10;;;4.40;60.40;;;;;;4985858;28;20419;-81
2022/03/06 09:30:47;;;;;;;16.88;11.60;;;4.40;60.70;;;;;;4985263;28;20226;-80
2022/03/06 09:33:16;;;;;;;18.13;11.65;;;4.40;60.70;;;;;;4999990;28;20258;-83
2022/03/06 09:35:43;;;;;;;17.55;11.00;;;4.50;60.50;;;;;;4984312;28;20202;-80
2022/03/06 09:38:11;;;;;;;18.02;12.38;;;4.50;60.20;;;;;;4984786;28;20226;-81
2022/03/06 09:40:44;;;;;;;19.90;13.45;;;4.50;60.10;;;;;;5000571;28;20245;-81
2022/03/06 09:43:16;;;;;;;17.20;10.93;;;4.50;60.20;;;;;;4987328;28;20211;-82
2022/03/06 09:45:48;;;;;;;15.27;10.05;;;4.60;59.70;;;;;;4985508;28;20361;-81
2022/03/06 09:48:17;;;;;;;18.45;12.07;;;4.60;60.00;;;;;;4985673;28;20604;-81
2022/03/06 09:50:46;;;;;;;17.70;12.23;;;4.70;59.80;;;;;;4995306;28;20203;-81
2022/03/06 09:53:14;;;;;;;21.67;13.18;;;4.70;59.60;;;;;;4984387;28;20805;-82
2022/03/06 09:55:42;;;;;;;13.60;9.73;;;4.80;59.90;;;;;;4987406;28;20206;-82
2022/03/06 09:58:10;;;;;;;15.82;10.98;;;4.90;59.40;;;;;;4985446;28;20297;-80
2022/03/06 10:00:38;;;;;;;18.98;12.25;;;5.00;59.30;;;;;;4999311;28;20238;-82
2022/03/06 10:03:07;;;;;;;25.58;15.30;;;5.10;59.00;;;;;;4985736;28;20253;-80
2022/03/06 10:05:38;;;;;;;15.73;11.05;;;5.10;59.10;;;;;;4984669;28;20779;-80
2022/03/06 10:08:18;;;;;;;13.43;9.63;;;5.20;58.10;;;;;;4998912;28;20226;-81
2022/03/06 10:10:47;;;;;;;14.77;10.18;;;5.20;57.20;;;;;;4985346;28;20214;-80
2022/03/06 10:13:20;;;;;;;14.52;10.23;;;5.20;57.60;;;;;;4981307;28;20214;-82
2022/03/06 10:16:02;;;;;;;15.10;10.18;;;5.30;56.70;;;;;;4978573;28;20239;-82
2022/03/06 10:18:34;;;;;;;18.90;10.35;;;5.30;57.50;;;;;;4979276;28;20240;-79
2022/03/06 10:21:16;;;;;;;13.68;9.70;;;5.40;57.10;;;;;;4983903;28;20206;-80
2022/03/06 10:23:45;;;;;;;16.38;12.35;;;5.40;56.30;;;;;;4983854;28;20202;-82
2022/03/06 10:26:15;;;;;;;15.13;10.20;;;5.50;56.50;;;;;;4981187;28;20205;-80
2022/03/06 10:28:51;;;;;;;14.60;10.48;;;5.50;55.30;;;;;;4981864;28;21026;-81
2022/03/06 10:31:21;;;;;;;14.75;11.90;;;5.50;55.30;;;;;;4997585;28;20238;-81
2022/03/06 10:34:03;;;;;;;14.60;10.15;;;5.60;55.80;;;;;;4981961;28;20207;-81
2022/03/06 10:36:33;;;;;;;13.23;10.02;;;5.60;54.90;;;;;;4982614;28;20203;-81
2022/03/06 10:39:02;;;;;;;13.60;9.75;;;5.70;55.00;;;;;;4984623;28;20437;-82
2022/03/06 10:41:38;;;;;;;13.00;10.50;;;5.80;55.20;;;;;;4985240;28;20207;-81
2022/03/06 10:44:08;;;;;;;16.05;10.52;;;5.80;54.70;;;;;;4984457;28;20930;-82
2022/03/06 10:46:37;;;;;;;13.63;10.35;;;5.90;54.10;;;;;;4985890;28;20238;-81
2022/03/06 10:49:12;;;;;;;14.45;10.85;;;5.90;54.50;;;;;;4982009;28;20227;-82
2022/03/06 10:51:43;;;;;;;16.65;11.38;;;5.90;54.20;;;;;;4983743;28;20217;-83
2022/03/06 10:54:13;;;;;;;13.07;10.00;;;5.90;54.10;;;;;;4999118;28;20249;-82
2022/03/06 10:56:43;;;;;;;17.30;11.43;;;5.90;53.60;;;;;;4985202;28;20198;-82
2022/03/06 10:59:19;;;;;;;14.63;10.18;;;6.00;54.10;;;;;;4984776;28;20280;-82
2022/03/06 11:01:48;;;;;;;16.65;12.10;;;6.00;53.60;;;;;;4984333;28;20222;-82
2022/03/06 11:04:18;;;;;;;16.88;11.50;;;6.00;53.90;;;;;;4984153;28;20249;-83
2022/03/06 11:06:47;;;;;;;16.40;12.50;;;6.00;54.00;;;;;;4998200;28;20241;-83
2022/03/06 11:09:17;;;;;;;16.27;11.98;;;6.10;54.00;;;;;;4983093;28;20231;-82
2022/03/06 11:11:47;;;;;;;17.70;11.00;;;6.10;53.70;;;;;;4983532;28;20206;-82
2022/03/06 11:14:15;;;;;;;15.32;11.68;;;6.10;53.20;;;;;;4983206;28;20211;-82
2022/03/06 11:16:43;;;;;;;16.02;11.32;;;6.10;53.50;;;;;;4981603;28;20237;-84
2022/03/06 11:19:11;;;;;;;31.17;15.30;;;6.10;53.60;;;;;;4983060;28;20292;-82
2022/03/06 11:21:43;;;;;;;29.77;14.95;;;6.00;53.50;;;;;;4998235;28;20206;-83
2022/03/06 11:24:13;;;;;;;17.80;11.50;;;6.00;53.50;;;;;;4998354;28;20206;-81
2022/03/06 11:27:19;;;;;;;23.92;12.32;;;5.90;53.60;;;;;;4985705;28;20447;-82
2022/03/06 11:30:07;;;;;;;30.65;13.60;;;5.90;53.60;;;;;;4948854;28;20306;-82
2022/03/06 11:32:37;;;;;;;17.70;10.48;;;5.80;53.30;;;;;;4986768;28;20234;-82
2022/03/06 11:35:11;;;;;;;40.85;16.75;;;5.70;53.40;;;;;;4987564;28;20223;-81
2022/03/06 11:38:02;;;;;;;24.05;13.75;;;5.60;52.90;;;;;;4989807;28;20575;-83
2022/03/06 11:40:38;;;;;;;26.98;13.43;;;5.60;53.50;;;;;;4987360;28;20218;-82
2022/03/06 11:43:07;;;;;;;38.20;15.95;;;5.60;53.50;;;;;;4989085;28;20218;-82
2022/03/06 11:45:54;;;;;;;14.88;10.43;;;5.50;53.60;;;;;;4987648;28;20435;-81
2022/03/06 11:48:28;;;;;;;16.27;11.77;;;5.60;53.70;;;;;;4984618;28;20230;-81
2022/03/06 11:51:19;;;;;;;15.82;10.20;;;5.60;53.70;;;;;;4990277;28;20709;-82
2022/03/06 11:53:52;;;;;;;36.28;17.13;;;5.60;53.70;;;;;;4985301;28;20877;-82
2022/03/06 11:57:02;;;;;;;29.50;15.55;;;5.60;53.70;;;;;;4984047;28;20210;-81
2022/03/06 11:59:39;;;;;;;20.35;13.57;;;5.60;53.80;;;;;;4985063;28;20253;-81
2022/03/06 12:02:14;;;;;;;17.67;11.55;;;5.70;53.90;;;;;;5000636;28;20238;-80
2022/03/06 12:04:45;;;;;;;22.85;13.43;;;5.70;53.90;;;;;;4982739;28;20206;-81
2022/03/06 12:07:15;;;;;;;18.70;12.00;;;5.70;53.80;;;;;;4982120;28;20221;-80
2022/03/06 12:09:46;;;;;;;13.63;10.40;;;5.70;53.80;;;;;;4985275;28;20895;-79
2022/03/06 12:12:16;;;;;;;15.38;10.43;;;5.80;53.80;;;;;;4983343;28;20205;-82
2022/03/06 12:14:49;;;;;;;15.07;9.82;;;5.80;53.60;;;;;;4984001;28;20213;-81
2022/03/06 12:17:31;;;;;;;15.18;10.77;;;5.80;53.70;;;;;;5002560;28;20284;-80
2022/03/06 12:20:28;;;;;;;14.88;10.10;;;5.90;53.70;;;;;;4986467;28;20218;-80
2022/03/06 12:23:09;;;;;;;15.07;10.50;;;5.90;53.20;;;;;;4985545;28;20932;-80
2022/03/06 12:25:39;;;;;;;15.90;11.13;;;5.80;53.10;;;;;;4990823;28;20210;-82
2022/03/06 12:28:24;;;;;;;16.65;11.25;;;5.80;53.10;;;;;;4985260;28;20620;-81
2022/03/06 12:30:53;;;;;;;13.68;10.20;;;5.80;53.30;;;;;;4983504;28;20230;-81
2022/03/06 12:33:38;;;;;;;15.27;12.00;;;5.80;53.50;;;;;;4987471;28;21249;-81
2022/03/06 12:36:14;;;;;;;20.23;11.50;;;5.80;53.60;;;;;;4984790;28;20203;-80
2022/03/06 12:38:42;;;;;;;22.20;11.18;;;5.80;53.40;;;;;;4982979;28;20682;-82
2022/03/06 12:41:12;;;;;;;14.98;10.90;;;5.80;53.10;;;;;;4985737;28;20207;-81
2022/03/06 12:43:46;;;;;;;13.63;11.13;;;5.80;53.00;;;;;;4983250;28;20212;-80
2022/03/06 12:46:17;;;;;;;15.45;11.15;;;5.70;53.10;;;;;;4984212;28;20237;-81
2022/03/06 12:48:49;;;;;;;13.10;10.20;;;5.70;52.90;;;;;;4982737;28;20758;-82
2022/03/06 12:51:28;;;;;;;15.98;11.38;;;5.70;53.20;;;;;;4982794;28;20238;-80